sensor_id;sensor_type;location;lat;lon;timestamp;P1;durP1;ratioP1;P2;durP2;ratioP2
75971;SDS011;64651;47.540;19.088;2024-03-08T00:04:22;24.25;;;10.13;;
75971;SDS011;64651;47.540;19.088;2024-03-08T00:09:24;22.90;;;9.73;;
75971;SDS011;64651;47.540;19.088;2024-03-08T00:14:29;24.83;;;10.55;;
75971;SDS011;64651;47.540;19.088;2024-03-08T00:19:31;22.10;;;9.00;;
75971;SDS011;64651;47.540;19.088;2024-03-08T00:24:33;22.83;;;9.77;;
75971;SDS011;64651;47.540;19.088;2024-03-08T00:29:35;24.85;;;9.75;;
75971;SDS011;64651;47.540;19.088;2024-03-08T00:34:40;23.17;;;9.30;;
75971;SDS011;64651;47.540;19.088;2024-03-08T00:39:42;23.83;;;10.00;;
75971;SDS011;64651;47.540;19.088;2024-03-08T00:44:45;22.70;;;8.97;;
75971;SDS011;64651;47.540;19.088;2024-03-08T00:49:47;24.23;;;9.95;;
75971;SDS011;64651;47.540;19.088;2024-03-08T00:54:49;23.15;;;9.00;;
75971;SDS011;64651;47.540;19.088;2024-03-08T00:59:52;23.00;;;9.97;;
75971;SDS011;64651;47.540;19.088;2024-03-08T01:04:54;25.00;;;9.98;;
75971;SDS011;64651;47.540;19.088;2024-03-08T01:09:57;24.10;;;9.80;;
75971;SDS011;64651;47.540;19.088;2024-03-08T01:14:59;23.12;;;9.57;;
75971;SDS011;64651;47.540;19.088;2024-03-08T01:20:02;24.90;;;10.32;;
75971;SDS011;64651;47.540;19.088;2024-03-08T01:25:05;26.10;;;10.93;;
75971;SDS011;64651;47.540;19.088;2024-03-08T01:30:08;25.17;;;10.07;;
75971;SDS011;64651;47.540;19.088;2024-03-08T01:35:11;24.30;;;10.07;;
75971;SDS011;64651;47.540;19.088;2024-03-08T01:40:13;24.20;;;10.25;;
75971;SDS011;64651;47.540;19.088;2024-03-08T01:45:16;24.65;;;10.38;;
75971;SDS011;64651;47.540;19.088;2024-03-08T01:50:18;25.37;;;10.47;;
75971;SDS011;64651;47.540;19.088;2024-03-08T01:55:21;25.35;;;11.68;;
75971;SDS011;64651;47.540;19.088;2024-03-08T02:00:23;28.07;;;10.73;;
75971;SDS011;64651;47.540;19.088;2024-03-08T02:05:28;28.98;;;10.38;;
75971;SDS011;64651;47.540;19.088;2024-03-08T02:10:30;25.65;;;10.88;;
75971;SDS011;64651;47.540;19.088;2024-03-08T02:21:00;29.70;;;12.57;;
75971;SDS011;64651;47.540;19.088;2024-03-08T02:26:04;29.90;;;12.10;;
75971;SDS011;64651;47.540;19.088;2024-03-08T02:31:07;31.70;;;13.02;;
75971;SDS011;64651;47.540;19.088;2024-03-08T02:36:10;31.20;;;12.98;;
75971;SDS011;64651;47.540;19.088;2024-03-08T02:41:12;31.97;;;12.90;;
75971;SDS011;64651;47.540;19.088;2024-03-08T02:46:14;32.33;;;13.13;;
75971;SDS011;64651;47.540;19.088;2024-03-08T02:51:17;29.83;;;12.07;;
75971;SDS011;64651;47.540;19.088;2024-03-08T02:56:19;32.63;;;13.27;;
75971;SDS011;64651;47.540;19.088;2024-03-08T03:01:23;35.50;;;13.77;;
75971;SDS011;64651;47.540;19.088;2024-03-08T03:06:26;36.13;;;13.67;;
75971;SDS011;64651;47.540;19.088;2024-03-08T03:11:28;37.97;;;14.45;;
75971;SDS011;64651;47.540;19.088;2024-03-08T03:16:30;35.93;;;14.40;;
75971;SDS011;64651;47.540;19.088;2024-03-08T03:21:32;36.88;;;14.52;;
75971;SDS011;64651;47.540;19.088;2024-03-08T03:26:38;41.53;;;15.02;;
75971;SDS011;64651;47.540;19.088;2024-03-08T03:31:43;38.97;;;15.57;;
75971;SDS011;64651;47.540;19.088;2024-03-08T03:36:48;36.30;;;14.65;;
75971;SDS011;64651;47.540;19.088;2024-03-08T03:41:50;41.03;;;15.53;;
75971;SDS011;64651;47.540;19.088;2024-03-08T03:46:53;40.17;;;14.32;;
75971;SDS011;64651;47.540;19.088;2024-03-08T03:51:56;38.47;;;15.32;;
75971;SDS011;64651;47.540;19.088;2024-03-08T03:56:58;41.37;;;16.00;;
75971;SDS011;64651;47.540;19.088;2024-03-08T04:02:01;39.38;;;15.05;;
75971;SDS011;64651;47.540;19.088;2024-03-08T04:07:03;35.33;;;14.23;;
75971;SDS011;64651;47.540;19.088;2024-03-08T04:12:05;39.92;;;15.35;;
75971;SDS011;64651;47.540;19.088;2024-03-08T04:17:07;37.92;;;14.75;;
75971;SDS011;64651;47.540;19.088;2024-03-08T04:22:13;38.80;;;14.70;;
75971;SDS011;64651;47.540;19.088;2024-03-08T04:27:16;36.20;;;14.65;;
75971;SDS011;64651;47.540;19.088;2024-03-08T04:32:18;38.97;;;15.90;;
75971;SDS011;64651;47.540;19.088;2024-03-08T04:37:20;38.17;;;14.75;;
75971;SDS011;64651;47.540;19.088;2024-03-08T04:42:27;42.20;;;15.40;;
75971;SDS011;64651;47.540;19.088;2024-03-08T04:47:31;42.23;;;15.93;;
75971;SDS011;64651;47.540;19.088;2024-03-08T04:52:34;38.05;;;15.00;;
75971;SDS011;64651;47.540;19.088;2024-03-08T04:57:37;38.43;;;14.23;;
75971;SDS011;64651;47.540;19.088;2024-03-08T05:02:39;39.10;;;14.85;;
75971;SDS011;64651;47.540;19.088;2024-03-08T05:07:42;40.22;;;14.50;;
75971;SDS011;64651;47.540;19.088;2024-03-08T05:12:47;39.57;;;15.47;;
75971;SDS011;64651;47.540;19.088;2024-03-08T05:17:49;43.13;;;15.63;;
75971;SDS011;64651;47.540;19.088;2024-03-08T05:22:52;40.33;;;15.43;;
75971;SDS011;64651;47.540;19.088;2024-03-08T05:27:54;40.45;;;15.38;;
75971;SDS011;64651;47.540;19.088;2024-03-08T05:32:57;43.75;;;14.57;;
75971;SDS011;64651;47.540;19.088;2024-03-08T05:37:59;42.80;;;15.17;;
75971;SDS011;64651;47.540;19.088;2024-03-08T05:43:02;38.20;;;14.93;;
75971;SDS011;64651;47.540;19.088;2024-03-08T05:48:04;44.57;;;15.43;;
75971;SDS011;64651;47.540;19.088;2024-03-08T05:53:07;42.62;;;14.73;;
75971;SDS011;64651;47.540;19.088;2024-03-08T05:58:09;44.97;;;15.00;;
75971;SDS011;64651;47.540;19.088;2024-03-08T06:03:13;43.50;;;15.23;;
75971;SDS011;64651;47.540;19.088;2024-03-08T06:08:16;41.00;;;15.77;;
75971;SDS011;64651;47.540;19.088;2024-03-08T06:13:18;45.50;;;15.40;;
75971;SDS011;64651;47.540;19.088;2024-03-08T06:18:21;46.22;;;16.45;;
75971;SDS011;64651;47.540;19.088;2024-03-08T06:23:25;47.03;;;17.65;;
75971;SDS011;64651;47.540;19.088;2024-03-08T06:28:29;43.27;;;16.03;;
75971;SDS011;64651;47.540;19.088;2024-03-08T06:33:31;42.00;;;16.15;;
75971;SDS011;64651;47.540;19.088;2024-03-08T06:38:34;37.57;;;15.13;;
75971;SDS011;64651;47.540;19.088;2024-03-08T06:43:36;40.25;;;15.15;;
75971;SDS011;64651;47.540;19.088;2024-03-08T06:48:39;38.92;;;15.35;;
75971;SDS011;64651;47.540;19.088;2024-03-08T06:53:41;38.20;;;14.60;;
75971;SDS011;64651;47.540;19.088;2024-03-08T06:58:44;36.65;;;15.45;;
75971;SDS011;64651;47.540;19.088;2024-03-08T07:03:47;41.53;;;16.07;;
75971;SDS011;64651;47.540;19.088;2024-03-08T07:08:49;41.83;;;16.40;;
75971;SDS011;64651;47.540;19.088;2024-03-08T07:13:51;42.50;;;16.20;;
75971;SDS011;64651;47.540;19.088;2024-03-08T07:18:53;39.03;;;14.27;;
75971;SDS011;64651;47.540;19.088;2024-03-08T07:23:56;41.28;;;16.45;;
75971;SDS011;64651;47.540;19.088;2024-03-08T07:29:01;38.70;;;14.90;;
75971;SDS011;64651;47.540;19.088;2024-03-08T07:34:03;41.72;;;15.38;;
75971;SDS011;64651;47.540;19.088;2024-03-08T07:39:09;39.15;;;15.85;;
75971;SDS011;64651;47.540;19.088;2024-03-08T07:44:18;38.60;;;14.73;;
75971;SDS011;64651;47.540;19.088;2024-03-08T07:49:22;42.75;;;16.00;;
75971;SDS011;64651;47.540;19.088;2024-03-08T07:54:26;42.40;;;15.87;;
75971;SDS011;64651;47.540;19.088;2024-03-08T07:59:29;42.50;;;15.77;;
75971;SDS011;64651;47.540;19.088;2024-03-08T08:04:32;40.67;;;15.30;;
75971;SDS011;64651;47.540;19.088;2024-03-08T08:09:34;42.30;;;17.13;;
75971;SDS011;64651;47.540;19.088;2024-03-08T08:14:40;43.13;;;16.80;;
75971;SDS011;64651;47.540;19.088;2024-03-08T08:19:43;42.13;;;15.90;;
75971;SDS011;64651;47.540;19.088;2024-03-08T08:24:45;42.08;;;15.75;;
75971;SDS011;64651;47.540;19.088;2024-03-08T08:29:48;43.72;;;16.80;;
75971;SDS011;64651;47.540;19.088;2024-03-08T08:34:51;45.73;;;16.80;;
75971;SDS011;64651;47.540;19.088;2024-03-08T08:39:54;50.58;;;17.45;;
75971;SDS011;64651;47.540;19.088;2024-03-08T08:44:56;46.07;;;17.17;;
75971;SDS011;64651;47.540;19.088;2024-03-08T08:50:09;45.30;;;15.43;;
75971;SDS011;64651;47.540;19.088;2024-03-08T08:55:13;40.97;;;16.05;;
75971;SDS011;64651;47.540;19.088;2024-03-08T09:00:17;42.40;;;16.07;;
75971;SDS011;64651;47.540;19.088;2024-03-08T09:05:23;42.35;;;16.58;;
75971;SDS011;64651;47.540;19.088;2024-03-08T09:10:28;40.37;;;15.33;;
75971;SDS011;64651;47.540;19.088;2024-03-08T09:15:34;42.35;;;15.85;;
75971;SDS011;64651;47.540;19.088;2024-03-08T09:20:37;40.22;;;16.25;;
75971;SDS011;64651;47.540;19.088;2024-03-08T09:25:40;40.17;;;16.50;;
75971;SDS011;64651;47.540;19.088;2024-03-08T09:30:44;42.15;;;15.63;;
75971;SDS011;64651;47.540;19.088;2024-03-08T09:36:01;42.93;;;16.63;;
75971;SDS011;64651;47.540;19.088;2024-03-08T09:41:06;40.67;;;16.12;;
75971;SDS011;64651;47.540;19.088;2024-03-08T09:46:08;40.78;;;16.45;;
75971;SDS011;64651;47.540;19.088;2024-03-08T09:51:10;44.00;;;16.07;;
75971;SDS011;64651;47.540;19.088;2024-03-08T09:56:16;41.20;;;16.75;;
75971;SDS011;64651;47.540;19.088;2024-03-08T10:01:19;40.60;;;15.90;;
75971;SDS011;64651;47.540;19.088;2024-03-08T10:06:23;43.60;;;15.95;;
75971;SDS011;64651;47.540;19.088;2024-03-08T10:11:26;44.65;;;17.52;;
75971;SDS011;64651;47.540;19.088;2024-03-08T10:16:29;43.70;;;17.13;;
75971;SDS011;64651;47.540;19.088;2024-03-08T10:21:31;39.97;;;15.98;;
75971;SDS011;64651;47.540;19.088;2024-03-08T10:26:35;39.10;;;15.47;;
75971;SDS011;64651;47.540;19.088;2024-03-08T10:31:38;36.90;;;15.48;;
75971;SDS011;64651;47.540;19.088;2024-03-08T10:36:47;41.65;;;16.87;;
75971;SDS011;64651;47.540;19.088;2024-03-08T10:41:57;35.93;;;15.90;;
75971;SDS011;64651;47.540;19.088;2024-03-08T10:47:09;39.15;;;14.87;;
75971;SDS011;64651;47.540;19.088;2024-03-08T10:52:20;37.07;;;15.80;;
75971;SDS011;64651;47.540;19.088;2024-03-08T10:57:24;39.88;;;15.45;;
75971;SDS011;64651;47.540;19.088;2024-03-08T11:02:26;35.63;;;15.32;;
75971;SDS011;64651;47.540;19.088;2024-03-08T11:07:35;44.73;;;15.73;;
75971;SDS011;64651;47.540;19.088;2024-03-08T11:12:38;35.33;;;15.00;;
75971;SDS011;64651;47.540;19.088;2024-03-08T11:17:44;32.30;;;14.43;;
75971;SDS011;64651;47.540;19.088;2024-03-08T11:22:55;34.83;;;15.43;;
75971;SDS011;64651;47.540;19.088;2024-03-08T11:28:23;34.65;;;14.52;;
75971;SDS011;64651;47.540;19.088;2024-03-08T11:33:29;36.40;;;15.70;;
75971;SDS011;64651;47.540;19.088;2024-03-08T11:38:33;35.08;;;15.15;;
75971;SDS011;64651;47.540;19.088;2024-03-08T11:43:35;37.13;;;15.30;;
75971;SDS011;64651;47.540;19.088;2024-03-08T11:48:38;33.83;;;14.93;;
75971;SDS011;64651;47.540;19.088;2024-03-08T11:53:43;36.72;;;15.15;;
75971;SDS011;64651;47.540;19.088;2024-03-08T11:58:52;34.83;;;14.53;;
75971;SDS011;64651;47.540;19.088;2024-03-08T12:03:57;32.08;;;14.80;;
75971;SDS011;64651;47.540;19.088;2024-03-08T12:09:01;36.93;;;15.47;;
75971;SDS011;64651;47.540;19.088;2024-03-08T12:14:04;33.40;;;16.00;;
75971;SDS011;64651;47.540;19.088;2024-03-08T12:19:08;40.83;;;16.98;;
75971;SDS011;64651;47.540;19.088;2024-03-08T12:24:12;39.47;;;17.58;;
75971;SDS011;64651;47.540;19.088;2024-03-08T12:29:19;36.67;;;16.33;;
75971;SDS011;64651;47.540;19.088;2024-03-08T12:34:25;42.37;;;17.37;;
75971;SDS011;64651;47.540;19.088;2024-03-08T12:39:29;35.70;;;16.48;;
75971;SDS011;64651;47.540;19.088;2024-03-08T12:44:34;35.00;;;16.35;;
75971;SDS011;64651;47.540;19.088;2024-03-08T12:49:36;33.47;;;15.73;;
75971;SDS011;64651;47.540;19.088;2024-03-08T12:54:38;32.38;;;15.32;;
75971;SDS011;64651;47.540;19.088;2024-03-08T12:59:42;32.83;;;14.40;;
75971;SDS011;64651;47.540;19.088;2024-03-08T13:04:44;35.47;;;15.32;;
75971;SDS011;64651;47.540;19.088;2024-03-08T13:09:47;28.90;;;14.90;;
75971;SDS011;64651;47.540;19.088;2024-03-08T13:14:49;34.42;;;16.08;;
75971;SDS011;64651;47.540;19.088;2024-03-08T13:19:53;30.05;;;14.45;;
75971;SDS011;64651;47.540;19.088;2024-03-08T13:25:03;33.33;;;14.70;;
75971;SDS011;64651;47.540;19.088;2024-03-08T13:30:07;34.38;;;15.65;;
75971;SDS011;64651;47.540;19.088;2024-03-08T13:35:13;38.20;;;15.40;;
75971;SDS011;64651;47.540;19.088;2024-03-08T13:40:15;40.38;;;16.30;;
75971;SDS011;64651;47.540;19.088;2024-03-08T13:45:20;35.30;;;15.48;;
75971;SDS011;64651;47.540;19.088;2024-03-08T13:50:26;35.37;;;15.10;;
75971;SDS011;64651;47.540;19.088;2024-03-08T13:55:28;36.25;;;15.68;;
75971;SDS011;64651;47.540;19.088;2024-03-08T14:00:31;32.72;;;15.27;;
75971;SDS011;64651;47.540;19.088;2024-03-08T14:05:38;32.47;;;14.73;;
75971;SDS011;64651;47.540;19.088;2024-03-08T14:10:41;29.55;;;13.60;;
75971;SDS011;64651;47.540;19.088;2024-03-08T14:15:44;32.73;;;14.83;;
75971;SDS011;64651;47.540;19.088;2024-03-08T14:20:48;33.78;;;14.55;;
75971;SDS011;64651;47.540;19.088;2024-03-08T14:25:50;33.95;;;15.18;;
75971;SDS011;64651;47.540;19.088;2024-03-08T14:30:54;32.22;;;14.13;;
75971;SDS011;64651;47.540;19.088;2024-03-08T14:35:56;34.88;;;15.88;;
75971;SDS011;64651;47.540;19.088;2024-03-08T14:40:59;33.77;;;14.43;;
75971;SDS011;64651;47.540;19.088;2024-03-08T14:46:03;32.15;;;13.88;;
75971;SDS011;64651;47.540;19.088;2024-03-08T14:51:05;34.28;;;13.73;;
75971;SDS011;64651;47.540;19.088;2024-03-08T14:56:12;32.08;;;14.98;;
75971;SDS011;64651;47.540;19.088;2024-03-08T15:01:18;36.42;;;15.65;;
75971;SDS011;64651;47.540;19.088;2024-03-08T15:06:26;36.63;;;15.17;;
75971;SDS011;64651;47.540;19.088;2024-03-08T15:11:28;35.42;;;13.68;;
75971;SDS011;64651;47.540;19.088;2024-03-08T15:16:31;30.65;;;13.30;;
75971;SDS011;64651;47.540;19.088;2024-03-08T15:21:33;34.45;;;13.52;;
75971;SDS011;64651;47.540;19.088;2024-03-08T15:26:36;35.55;;;14.10;;
75971;SDS011;64651;47.540;19.088;2024-03-08T15:31:38;38.20;;;15.10;;
75971;SDS011;64651;47.540;19.088;2024-03-08T15:36:42;36.55;;;15.10;;
75971;SDS011;64651;47.540;19.088;2024-03-08T15:41:49;33.30;;;14.73;;
75971;SDS011;64651;47.540;19.088;2024-03-08T15:46:51;33.55;;;14.35;;
75971;SDS011;64651;47.540;19.088;2024-03-08T15:51:54;35.45;;;14.95;;
75971;SDS011;64651;47.540;19.088;2024-03-08T15:56:56;36.83;;;14.87;;
75971;SDS011;64651;47.540;19.088;2024-03-08T16:02:02;37.90;;;15.38;;
75971;SDS011;64651;47.540;19.088;2024-03-08T16:07:05;34.00;;;14.02;;
75971;SDS011;64651;47.540;19.088;2024-03-08T16:12:08;33.95;;;14.60;;
75971;SDS011;64651;47.540;19.088;2024-03-08T16:17:11;33.17;;;14.40;;
75971;SDS011;64651;47.540;19.088;2024-03-08T16:22:13;32.53;;;13.93;;
75971;SDS011;64651;47.540;19.088;2024-03-08T16:27:15;38.20;;;15.20;;
75971;SDS011;64651;47.540;19.088;2024-03-08T16:32:18;34.22;;;14.87;;
75971;SDS011;64651;47.540;19.088;2024-03-08T16:37:23;34.03;;;14.57;;
75971;SDS011;64651;47.540;19.088;2024-03-08T16:42:28;37.15;;;15.60;;
75971;SDS011;64651;47.540;19.088;2024-03-08T16:47:30;34.77;;;15.03;;
75971;SDS011;64651;47.540;19.088;2024-03-08T16:52:34;32.30;;;14.65;;
75971;SDS011;64651;47.540;19.088;2024-03-08T16:57:43;32.25;;;14.85;;
75971;SDS011;64651;47.540;19.088;2024-03-08T17:02:46;35.72;;;15.27;;
75971;SDS011;64651;47.540;19.088;2024-03-08T17:07:54;36.10;;;15.52;;
75971;SDS011;64651;47.540;19.088;2024-03-08T17:12:59;38.00;;;15.63;;
75971;SDS011;64651;47.540;19.088;2024-03-08T17:18:03;40.53;;;16.33;;
75971;SDS011;64651;47.540;19.088;2024-03-08T17:23:14;41.05;;;16.87;;
75971;SDS011;64651;47.540;19.088;2024-03-08T17:28:18;38.03;;;16.48;;
75971;SDS011;64651;47.540;19.088;2024-03-08T17:33:20;39.40;;;15.38;;
75971;SDS011;64651;47.540;19.088;2024-03-08T17:38:26;40.10;;;16.10;;
75971;SDS011;64651;47.540;19.088;2024-03-08T17:43:30;36.40;;;15.85;;
75971;SDS011;64651;47.540;19.088;2024-03-08T17:48:36;37.33;;;16.73;;
75971;SDS011;64651;47.540;19.088;2024-03-08T17:53:38;36.97;;;15.57;;
75971;SDS011;64651;47.540;19.088;2024-03-08T17:58:41;40.08;;;16.98;;
75971;SDS011;64651;47.540;19.088;2024-03-08T18:03:43;37.07;;;16.53;;
75971;SDS011;64651;47.540;19.088;2024-03-08T18:08:46;40.35;;;16.20;;
75971;SDS011;64651;47.540;19.088;2024-03-08T18:13:49;38.17;;;15.82;;
75971;SDS011;64651;47.540;19.088;2024-03-08T18:18:53;39.33;;;16.15;;
75971;SDS011;64651;47.540;19.088;2024-03-08T18:23:56;36.67;;;15.40;;
75971;SDS011;64651;47.540;19.088;2024-03-08T18:29:02;39.03;;;16.77;;
75971;SDS011;64651;47.540;19.088;2024-03-08T18:34:11;38.22;;;16.35;;
75971;SDS011;64651;47.540;19.088;2024-03-08T18:39:13;43.58;;;15.75;;
75971;SDS011;64651;47.540;19.088;2024-03-08T18:44:18;35.92;;;16.00;;
75971;SDS011;64651;47.540;19.088;2024-03-08T18:49:21;42.72;;;16.80;;
75971;SDS011;64651;47.540;19.088;2024-03-08T18:54:23;37.00;;;15.87;;
75971;SDS011;64651;47.540;19.088;2024-03-08T18:59:28;39.33;;;16.48;;
75971;SDS011;64651;47.540;19.088;2024-03-08T19:04:34;40.78;;;16.33;;
75971;SDS011;64651;47.540;19.088;2024-03-08T19:09:38;37.53;;;17.27;;
75971;SDS011;64651;47.540;19.088;2024-03-08T19:14:44;37.13;;;16.60;;
75971;SDS011;64651;47.540;19.088;2024-03-08T19:19:46;43.30;;;17.37;;
75971;SDS011;64651;47.540;19.088;2024-03-08T19:24:48;41.42;;;17.48;;
75971;SDS011;64651;47.540;19.088;2024-03-08T19:29:50;42.62;;;18.02;;
75971;SDS011;64651;47.540;19.088;2024-03-08T19:34:54;40.20;;;17.50;;
75971;SDS011;64651;47.540;19.088;2024-03-08T19:39:57;48.10;;;20.80;;
75971;SDS011;64651;47.540;19.088;2024-03-08T19:44:59;40.67;;;17.23;;
75971;SDS011;64651;47.540;19.088;2024-03-08T19:50:02;42.15;;;17.08;;
75971;SDS011;64651;47.540;19.088;2024-03-08T19:55:09;41.78;;;17.20;;
75971;SDS011;64651;47.540;19.088;2024-03-08T20:00:16;43.90;;;18.70;;
75971;SDS011;64651;47.540;19.088;2024-03-08T20:05:23;43.92;;;18.08;;
75971;SDS011;64651;47.540;19.088;2024-03-08T20:10:30;40.83;;;17.40;;
75971;SDS011;64651;47.540;19.088;2024-03-08T20:15:34;42.38;;;17.98;;
75971;SDS011;64651;47.540;19.088;2024-03-08T20:20:41;43.45;;;18.83;;
75971;SDS011;64651;47.540;19.088;2024-03-08T20:25:50;39.70;;;17.55;;
75971;SDS011;64651;47.540;19.088;2024-03-08T20:30:53;48.15;;;18.40;;
75971;SDS011;64651;47.540;19.088;2024-03-08T20:35:56;47.20;;;19.03;;
75971;SDS011;64651;47.540;19.088;2024-03-08T20:40:58;49.15;;;19.37;;
75971;SDS011;64651;47.540;19.088;2024-03-08T20:46:02;49.58;;;19.87;;
75971;SDS011;64651;47.540;19.088;2024-03-08T20:51:06;52.17;;;18.85;;
75971;SDS011;64651;47.540;19.088;2024-03-08T20:56:09;50.55;;;18.90;;
75971;SDS011;64651;47.540;19.088;2024-03-08T21:01:15;48.60;;;18.67;;
75971;SDS011;64651;47.540;19.088;2024-03-08T21:06:18;49.38;;;19.65;;
75971;SDS011;64651;47.540;19.088;2024-03-08T21:11:22;53.25;;;18.77;;
75971;SDS011;64651;47.540;19.088;2024-03-08T21:16:27;48.97;;;20.50;;
75971;SDS011;64651;47.540;19.088;2024-03-08T21:21:29;51.67;;;18.90;;
75971;SDS011;64651;47.540;19.088;2024-03-08T21:26:34;45.17;;;19.33;;
75971;SDS011;64651;47.540;19.088;2024-03-08T21:31:38;50.00;;;19.50;;
75971;SDS011;64651;47.540;19.088;2024-03-08T21:36:41;49.80;;;19.33;;
75971;SDS011;64651;47.540;19.088;2024-03-08T21:41:45;54.42;;;19.58;;
75971;SDS011;64651;47.540;19.088;2024-03-08T21:46:47;47.85;;;19.02;;
75971;SDS011;64651;47.540;19.088;2024-03-08T21:51:50;46.43;;;19.07;;
75971;SDS011;64651;47.540;19.088;2024-03-08T21:56:52;47.20;;;18.95;;
75971;SDS011;64651;47.540;19.088;2024-03-08T22:01:55;47.20;;;18.65;;
75971;SDS011;64651;47.540;19.088;2024-03-08T22:06:57;49.15;;;18.98;;
75971;SDS011;64651;47.540;19.088;2024-03-08T22:12:02;48.03;;;18.80;;
75971;SDS011;64651;47.540;19.088;2024-03-08T22:17:06;55.33;;;22.03;;
75971;SDS011;64651;47.540;19.088;2024-03-08T22:22:09;49.33;;;18.70;;
75971;SDS011;64651;47.540;19.088;2024-03-08T22:27:12;52.45;;;19.67;;
75971;SDS011;64651;47.540;19.088;2024-03-08T22:32:15;47.62;;;18.35;;
75971;SDS011;64651;47.540;19.088;2024-03-08T22:37:17;49.95;;;18.77;;
75971;SDS011;64651;47.540;19.088;2024-03-08T22:42:21;49.60;;;18.90;;
75971;SDS011;64651;47.540;19.088;2024-03-08T22:47:24;52.60;;;19.65;;
75971;SDS011;64651;47.540;19.088;2024-03-08T22:52:27;53.65;;;20.12;;
75971;SDS011;64651;47.540;19.088;2024-03-08T22:57:29;48.92;;;19.20;;
75971;SDS011;64651;47.540;19.088;2024-03-08T23:02:31;50.20;;;19.65;;
75971;SDS011;64651;47.540;19.088;2024-03-08T23:07:35;55.73;;;20.87;;
75971;SDS011;64651;47.540;19.088;2024-03-08T23:12:37;50.00;;;20.23;;
75971;SDS011;64651;47.540;19.088;2024-03-08T23:17:40;51.58;;;19.67;;
75971;SDS011;64651;47.540;19.088;2024-03-08T23:22:44;48.35;;;20.40;;
75971;SDS011;64651;47.540;19.088;2024-03-08T23:27:49;45.88;;;19.50;;
75971;SDS011;64651;47.540;19.088;2024-03-08T23:32:53;48.93;;;19.53;;
75971;SDS011;64651;47.540;19.088;2024-03-08T23:37:56;48.85;;;20.33;;
75971;SDS011;64651;47.540;19.088;2024-03-08T23:42:59;50.42;;;19.30;;
75971;SDS011;64651;47.540;19.088;2024-03-08T23:48:05;46.17;;;19.33;;
75971;SDS011;64651;47.540;19.088;2024-03-08T23:53:09;48.72;;;18.58;;
75971;SDS011;64651;47.540;19.088;2024-03-08T23:58:11;47.43;;;18.73;;
